sensor_id;sensor_type;location;lat;lon;timestamp;pressure;altitude;pressure_sealevel;temperature;humidity
13348;BME280;6743;49.934;9.138;2023-03-22T00:02:01;100226.13;;;7.71;100.00
13348;BME280;6743;49.934;9.138;2023-03-22T00:04:28;100225.84;;;7.74;100.00
13348;BME280;6743;49.934;9.138;2023-03-22T00:06:55;100223.03;;;7.76;100.00
13348;BME280;6743;49.934;9.138;2023-03-22T00:09:21;100223.72;;;7.78;100.00
13348;BME280;6743;49.934;9.138;2023-03-22T00:11:47;100219.13;;;7.80;100.00
13348;BME280;6743;49.934;9.138;2023-03-22T00:14:15;100215.50;;;7.81;100.00
13348;BME280;6743;49.934;9.138;2023-03-22T00:16:41;100206.75;;;7.80;100.00
13348;BME280;6743;49.934;9.138;2023-03-22T00:19:08;100209.09;;;7.83;100.00
13348;BME280;6743;49.934;9.138;2023-03-22T00:21:34;100192.03;;;7.78;100.00
13348;BME280;6743;49.934;9.138;2023-03-22T00:24:00;100197.09;;;7.89;100.00
13348;BME280;6743;49.934;9.138;2023-03-22T00:26:26;100209.31;;;7.90;100.00
13348;BME280;6743;49.934;9.138;2023-03-22T00:28:52;100196.13;;;7.90;100.00
13348;BME280;6743;49.934;9.138;2023-03-22T00:31:18;100191.38;;;7.94;100.00
13348;BME280;6743;49.934;9.138;2023-03-22T00:33:44;100183.59;;;7.92;100.00
13348;BME280;6743;49.934;9.138;2023-03-22T00:36:11;100180.94;;;7.92;100.00
13348;BME280;6743;49.934;9.138;2023-03-22T00:38:38;100180.94;;;7.92;100.00
13348;BME280;6743;49.934;9.138;2023-03-22T00:41:06;100181.94;;;7.91;100.00
13348;BME280;6743;49.934;9.138;2023-03-22T00:43:32;100175.13;;;7.88;100.00
13348;BME280;6743;49.934;9.138;2023-03-22T00:45:58;100177.75;;;7.88;100.00
13348;BME280;6743;49.934;9.138;2023-03-22T00:48:24;100176.97;;;7.88;100.00
13348;BME280;6743;49.934;9.138;2023-03-22T00:50:50;100170.31;;;7.84;100.00
13348;BME280;6743;49.934;9.138;2023-03-22T00:53:17;100173.09;;;7.82;100.00
13348;BME280;6743;49.934;9.138;2023-03-22T00:55:43;100167.75;;;7.74;100.00
13348;BME280;6743;49.934;9.138;2023-03-22T00:58:09;100178.81;;;7.78;100.00
13348;BME280;6743;49.934;9.138;2023-03-22T01:00:35;100168.25;;;7.78;100.00
13348;BME280;6743;49.934;9.138;2023-03-22T01:03:01;100174.50;;;7.77;100.00
13348;BME280;6743;49.934;9.138;2023-03-22T01:05:30;100167.44;;;7.77;100.00
13348;BME280;6743;49.934;9.138;2023-03-22T01:07:59;100163.81;;;7.78;100.00
13348;BME280;6743;49.934;9.138;2023-03-22T01:10:28;100164.50;;;7.80;100.00
13348;BME280;6743;49.934;9.138;2023-03-22T01:12:54;100168.50;;;7.84;100.00
13348;BME280;6743;49.934;9.138;2023-03-22T01:15:21;100161.12;;;7.88;100.00
13348;BME280;6743;49.934;9.138;2023-03-22T01:17:47;100159.13;;;7.90;100.00
13348;BME280;6743;49.934;9.138;2023-03-22T01:20:13;100150.38;;;7.89;100.00
13348;BME280;6743;49.934;9.138;2023-03-22T01:22:39;100138.22;;;7.79;100.00
13348;BME280;6743;49.934;9.138;2023-03-22T01:25:06;100157.31;;;7.90;100.00
13348;BME280;6743;49.934;9.138;2023-03-22T01:27:33;100158.84;;;7.93;100.00
13348;BME280;6743;49.934;9.138;2023-03-22T01:29:59;100148.56;;;7.90;100.00
13348;BME280;6743;49.934;9.138;2023-03-22T01:32:26;100156.22;;;7.93;100.00
13348;BME280;6743;49.934;9.138;2023-03-22T01:34:52;100154.25;;;7.95;100.00
13348;BME280;6743;49.934;9.138;2023-03-22T01:37:18;100151.63;;;7.95;100.00
13348;BME280;6743;49.934;9.138;2023-03-22T01:39:44;100150.59;;;7.96;100.00
13348;BME280;6743;49.934;9.138;2023-03-22T01:42:12;100149.63;;;7.97;100.00
13348;BME280;6743;49.934;9.138;2023-03-22T01:44:41;100147.81;;;7.98;100.00
13348;BME280;6743;49.934;9.138;2023-03-22T01:47:09;100142.53;;;7.98;100.00
13348;BME280;6743;49.934;9.138;2023-03-22T01:49:35;100148.66;;;7.98;100.00
13348;BME280;6743;49.934;9.138;2023-03-22T01:52:05;100151.44;;;7.97;100.00
13348;BME280;6743;49.934;9.138;2023-03-22T01:54:37;100144.50;;;7.96;100.00
13348;BME280;6743;49.934;9.138;2023-03-22T01:57:07;100147.81;;;7.98;100.00
13348;BME280;6743;49.934;9.138;2023-03-22T01:59:34;100133.13;;;7.95;100.00
13348;BME280;6743;49.934;9.138;2023-03-22T02:02:01;100135.50;;;7.88;100.00
13348;BME280;6743;49.934;9.138;2023-03-22T02:04:31;100135.06;;;7.93;100.00
13348;BME280;6743;49.934;9.138;2023-03-22T02:07:00;100132.44;;;7.93;100.00
13348;BME280;6743;49.934;9.138;2023-03-22T02:09:27;100132.56;;;7.91;100.00
13348;BME280;6743;49.934;9.138;2023-03-22T02:12:07;100097.84;;;7.69;100.00
13348;BME280;6743;49.934;9.138;2023-03-22T02:14:51;100132.88;;;7.88;100.00
13348;BME280;6743;49.934;9.138;2023-03-22T02:17:29;100131.06;;;7.89;100.00
13348;BME280;6743;49.934;9.138;2023-03-22T02:23:18;100117.03;;;7.88;100.00
13348;BME280;6743;49.934;9.138;2023-03-22T02:26:23;100114.16;;;7.82;100.00
13348;BME280;6743;49.934;9.138;2023-03-22T02:28:59;100117.47;;;7.84;100.00
13348;BME280;6743;49.934;9.138;2023-03-22T02:31:47;100111.81;;;7.79;100.00
13348;BME280;6743;49.934;9.138;2023-03-22T02:34:34;100115.59;;;7.76;100.00
13348;BME280;6743;49.934;9.138;2023-03-22T02:37:22;100116.75;;;7.74;100.00
13348;BME280;6743;49.934;9.138;2023-03-22T02:39:55;100121.31;;;7.72;100.00
13348;BME280;6743;49.934;9.138;2023-03-22T02:42:36;100120.62;;;7.70;100.00
13348;BME280;6743;49.934;9.138;2023-03-22T02:45:10;100119.81;;;7.69;100.00
13348;BME280;6743;49.934;9.138;2023-03-22T02:47:41;100118.13;;;7.68;100.00
13348;BME280;6743;49.934;9.138;2023-03-22T02:50:13;100118.13;;;7.68;100.00
13348;BME280;6743;49.934;9.138;2023-03-22T02:52:45;100123.41;;;7.68;100.00
13348;BME280;6743;49.934;9.138;2023-03-22T02:55:17;100133.56;;;7.73;100.00
13348;BME280;6743;49.934;9.138;2023-03-22T02:57:48;100135.22;;;7.74;100.00
13348;BME280;6743;49.934;9.138;2023-03-22T03:00:18;100142.00;;;7.76;100.00
13348;BME280;6743;49.934;9.138;2023-03-22T03:02:48;100140.03;;;7.78;100.00
13348;BME280;6743;49.934;9.138;2023-03-22T03:05:17;100119.81;;;7.69;100.00
13348;BME280;6743;49.934;9.138;2023-03-22T03:07:48;100133.66;;;7.81;100.00
13348;BME280;6743;49.934;9.138;2023-03-22T03:10:17;100132.63;;;7.82;100.00
13348;BME280;6743;49.934;9.138;2023-03-22T03:12:44;100113.09;;;7.75;100.00
13348;BME280;6743;49.934;9.138;2023-03-22T03:15:14;100135.50;;;7.88;100.00
13348;BME280;6743;49.934;9.138;2023-03-22T03:17:52;100129.41;;;7.88;100.00
13348;BME280;6743;49.934;9.138;2023-03-22T03:20:26;100133.41;;;7.92;100.00
13348;BME280;6743;49.934;9.138;2023-03-22T03:23:09;100134.09;;;7.94;100.00
13348;BME280;6743;49.934;9.138;2023-03-22T03:25:46;100125.50;;;7.92;100.00
13348;BME280;6743;49.934;9.138;2023-03-22T03:28:21;100124.19;;;7.96;100.00
13348;BME280;6743;49.934;9.138;2023-03-22T03:30:56;100123.06;;;7.99;100.00
13348;BME280;6743;49.934;9.138;2023-03-22T03:33:27;100122.09;;;8.00;100.00
13348;BME280;6743;49.934;9.138;2023-03-22T03:35:58;100106.25;;;8.00;100.00
13348;BME280;6743;49.934;9.138;2023-03-22T03:38:28;100108.88;;;8.00;100.00
13348;BME280;6743;49.934;9.138;2023-03-22T03:40:59;100100.97;;;8.00;100.00
13348;BME280;6743;49.934;9.138;2023-03-22T03:43:26;100103.59;;;8.00;100.00
13348;BME280;6743;49.934;9.138;2023-03-22T03:45:56;100108.06;;;7.99;100.00
13348;BME280;6743;49.934;9.138;2023-03-22T03:48:26;100107.22;;;7.99;100.00
13348;BME280;6743;49.934;9.138;2023-03-22T03:50:59;100117.78;;;7.99;100.00
13348;BME280;6743;49.934;9.138;2023-03-22T03:53:29;100103.75;;;7.98;100.00
13348;BME280;6743;49.934;9.138;2023-03-22T03:56:07;100105.69;;;7.96;100.00
13348;BME280;6743;49.934;9.138;2023-03-22T03:58:36;100103.22;;;7.95;100.00
13348;BME280;6743;49.934;9.138;2023-03-22T04:01:04;100102.41;;;7.94;100.00
13348;BME280;6743;49.934;9.138;2023-03-22T04:03:30;100104.34;;;7.92;100.00
13348;BME280;6743;49.934;9.138;2023-03-22T04:05:56;100105.34;;;7.91;100.00
13348;BME280;6743;49.934;9.138;2023-03-22T04:08:24;100088.66;;;7.90;100.00
13348;BME280;6743;49.934;9.138;2023-03-22T04:10:51;100082.53;;;7.90;100.00
13348;BME280;6743;49.934;9.138;2023-03-22T04:13:18;100072.13;;;7.88;100.00
13348;BME280;6743;49.934;9.138;2023-03-22T04:15:45;100068.69;;;7.88;100.00
13348;BME280;6743;49.934;9.138;2023-03-22T04:18:11;100065.34;;;7.86;100.00
13348;BME280;6743;49.934;9.138;2023-03-22T04:20:37;100069.12;;;7.83;100.00
13348;BME280;6743;49.934;9.138;2023-03-22T04:23:05;100065.50;;;7.84;100.00
13348;BME280;6743;49.934;9.138;2023-03-22T04:25:31;100062.16;;;7.82;100.00
13348;BME280;6743;49.934;9.138;2023-03-22T04:27:58;100057.06;;;7.81;100.00
13348;BME280;6743;49.934;9.138;2023-03-22T04:30:25;100050.72;;;7.74;100.00
13348;BME280;6743;49.934;9.138;2023-03-22T04:32:51;100048.75;;;7.76;100.00
13348;BME280;6743;49.934;9.138;2023-03-22T04:35:17;100047.91;;;7.75;100.00
13348;BME280;6743;49.934;9.138;2023-03-22T04:37:43;100053.03;;;7.77;100.00
13348;BME280;6743;49.934;9.138;2023-03-22T04:40:10;100052.53;;;7.73;100.00
13348;BME280;6743;49.934;9.138;2023-03-22T04:42:41;100056.00;;;7.74;100.00
13348;BME280;6743;49.934;9.138;2023-03-22T04:45:08;100057.81;;;7.73;100.00
13348;BME280;6743;49.934;9.138;2023-03-22T04:47:35;100055.16;;;7.73;100.00
13348;BME280;6743;49.934;9.138;2023-03-22T04:50:01;100054.34;;;7.73;100.00
13348;BME280;6743;49.934;9.138;2023-03-22T04:52:27;100055.00;;;7.75;100.00
13348;BME280;6743;49.934;9.138;2023-03-22T04:54:53;100050.53;;;7.75;100.00
13348;BME280;6743;49.934;9.138;2023-03-22T04:57:19;100046.41;;;7.73;100.00
13348;BME280;6743;49.934;9.138;2023-03-22T04:59:45;100050.53;;;7.75;100.00
13348;BME280;6743;49.934;9.138;2023-03-22T05:02:11;100048.75;;;7.76;100.00
13348;BME280;6743;49.934;9.138;2023-03-22T05:04:38;100028.69;;;7.65;100.00
13348;BME280;6743;49.934;9.138;2023-03-22T05:07:04;100055.41;;;7.80;100.00
13348;BME280;6743;49.934;9.138;2023-03-22T05:09:30;100054.41;;;7.81;100.00
13348;BME280;6743;49.934;9.138;2023-03-22T05:11:57;100055.22;;;7.81;100.00
13348;BME280;6743;49.934;9.138;2023-03-22T05:14:23;100057.19;;;7.79;100.00
13348;BME280;6743;49.934;9.138;2023-03-22T05:16:49;100049.94;;;7.81;100.00
13348;BME280;6743;49.934;9.138;2023-03-22T05:19:15;100053.59;;;7.80;100.00
13348;BME280;6743;49.934;9.138;2023-03-22T05:21:42;100056.38;;;7.79;100.00
13348;BME280;6743;49.934;9.138;2023-03-22T05:24:09;100051.91;;;7.79;100.00
13348;BME280;6743;49.934;9.138;2023-03-22T05:26:36;100059.84;;;7.79;100.00
13348;BME280;6743;49.934;9.138;2023-03-22T05:29:07;100067.75;;;7.79;100.00
13348;BME280;6743;49.934;9.138;2023-03-22T05:31:34;100059.00;;;7.79;100.00
13348;BME280;6743;49.934;9.138;2023-03-22T05:34:00;99989.19;;;7.38;100.00
13348;BME280;6743;49.934;9.138;2023-03-22T05:36:26;100040.09;;;7.66;100.00
13348;BME280;6743;49.934;9.138;2023-03-22T05:38:54;100064.28;;;7.79;100.00
13348;BME280;6743;49.934;9.138;2023-03-22T05:41:20;100066.78;;;7.80;100.00
13348;BME280;6743;49.934;9.138;2023-03-22T05:43:46;100069.44;;;7.80;100.00
13348;BME280;6743;49.934;9.138;2023-03-22T05:46:13;100069.44;;;7.80;100.00
13348;BME280;6743;49.934;9.138;2023-03-22T05:48:39;100067.63;;;7.81;100.00
13348;BME280;6743;49.934;9.138;2023-03-22T05:51:06;100078.00;;;7.82;100.00
13348;BME280;6743;49.934;9.138;2023-03-22T05:53:32;100073.56;;;7.83;100.00
13348;BME280;6743;49.934;9.138;2023-03-22T05:55:59;100072.72;;;7.82;100.00
13348;BME280;6743;49.934;9.138;2023-03-22T05:58:26;100073.56;;;7.83;100.00
13348;BME280;6743;49.934;9.138;2023-03-22T06:00:53;100070.41;;;7.79;100.00
13348;BME280;6743;49.934;9.138;2023-03-22T06:03:20;100076.28;;;7.91;100.00
13348;BME280;6743;49.934;9.138;2023-03-22T06:05:46;100081.56;;;7.91;100.00
13348;BME280;6743;49.934;9.138;2023-03-22T06:08:15;100054.25;;;7.82;100.00
13348;BME280;6743;49.934;9.138;2023-03-22T06:10:41;100073.72;;;7.99;100.00
13348;BME280;6743;49.934;9.138;2023-03-22T06:13:08;100077.87;;;8.02;100.00
13348;BME280;6743;49.934;9.138;2023-03-22T06:15:34;100073.38;;;8.02;100.00
13348;BME280;6743;49.934;9.138;2023-03-22T06:18:00;99987.97;;;7.50;100.00
13348;BME280;6743;49.934;9.138;2023-03-22T06:20:26;100076.72;;;8.04;100.00
13348;BME280;6743;49.934;9.138;2023-03-22T06:22:52;100081.03;;;8.05;100.00
13348;BME280;6743;49.934;9.138;2023-03-22T06:25:18;100076.56;;;8.06;100.00
13348;BME280;6743;49.934;9.138;2023-03-22T06:27:44;100079.22;;;8.06;100.00
13348;BME280;6743;49.934;9.138;2023-03-22T06:30:11;100075.75;;;8.05;100.00
13348;BME280;6743;49.934;9.138;2023-03-22T06:32:37;100082.69;;;8.06;100.00
13348;BME280;6743;49.934;9.138;2023-03-22T06:35:04;100087.13;;;8.06;100.00
13348;BME280;6743;49.934;9.138;2023-03-22T06:37:30;100080.19;;;8.05;100.00
13348;BME280;6743;49.934;9.138;2023-03-22T06:39:56;100076.56;;;8.06;100.00
13348;BME280;6743;49.934;9.138;2023-03-22T06:42:22;100068.44;;;7.99;100.00
13348;BME280;6743;49.934;9.138;2023-03-22T06:44:48;100085.19;;;8.08;100.00
13348;BME280;6743;49.934;9.138;2023-03-22T06:47:15;100081.72;;;8.07;100.00
13348;BME280;6743;49.934;9.138;2023-03-22T06:49:41;100077.06;;;8.09;100.00
13348;BME280;6743;49.934;9.138;2023-03-22T06:52:07;100085.84;;;8.10;100.00
13348;BME280;6743;49.934;9.138;2023-03-22T06:54:33;100080.72;;;8.08;100.00
13348;BME280;6743;49.934;9.138;2023-03-22T06:56:59;100092.63;;;8.12;100.00
13348;BME280;6743;49.934;9.138;2023-03-22T06:59:26;100089.16;;;8.12;100.00
13348;BME280;6743;49.934;9.138;2023-03-22T07:01:52;100092.34;;;8.15;100.00
13348;BME280;6743;49.934;9.138;2023-03-22T07:04:18;100092.84;;;8.19;100.00
13348;BME280;6743;49.934;9.138;2023-03-22T07:06:44;100094.37;;;8.21;100.00
13348;BME280;6743;49.934;9.138;2023-03-22T07:09:10;100072.62;;;8.10;100.00
13348;BME280;6743;49.934;9.138;2023-03-22T07:11:36;100094.59;;;8.28;100.00
13348;BME280;6743;49.934;9.138;2023-03-22T07:14:02;100084.47;;;8.23;100.00
13348;BME280;6743;49.934;9.138;2023-03-22T07:16:28;100102.06;;;8.33;100.00
13348;BME280;6743;49.934;9.138;2023-03-22T07:18:54;100106.09;;;8.37;100.00
13348;BME280;6743;49.934;9.138;2023-03-22T07:21:21;100112.56;;;8.42;100.00
13348;BME280;6743;49.934;9.138;2023-03-22T07:23:47;100114.87;;;8.45;100.00
13348;BME280;6743;49.934;9.138;2023-03-22T07:26:13;100111.63;;;8.51;100.00
13348;BME280;6743;49.934;9.138;2023-03-22T07:28:39;100105.06;;;8.55;100.00
13348;BME280;6743;49.934;9.138;2023-03-22T07:31:10;100108.88;;;8.61;100.00
13348;BME280;6743;49.934;9.138;2023-03-22T07:33:37;100111.72;;;8.67;100.00
13348;BME280;6743;49.934;9.138;2023-03-22T07:36:04;100106.66;;;8.74;100.00
13348;BME280;6743;49.934;9.138;2023-03-22T07:38:31;100105.88;;;8.82;100.00
13348;BME280;6743;49.934;9.138;2023-03-22T07:40:57;100100.47;;;8.91;100.00
13348;BME280;6743;49.934;9.138;2023-03-22T07:43:26;100101.16;;;9.01;100.00
13348;BME280;6743;49.934;9.138;2023-03-22T07:45:52;100105.66;;;9.09;100.00
13348;BME280;6743;49.934;9.138;2023-03-22T07:48:19;100107.03;;;9.21;100.00
13348;BME280;6743;49.934;9.138;2023-03-22T07:50:46;100107.91;;;9.30;100.00
13348;BME280;6743;49.934;9.138;2023-03-22T07:53:12;100113.56;;;9.43;100.00
13348;BME280;6743;49.934;9.138;2023-03-22T07:55:39;100100.84;;;9.55;100.00
13348;BME280;6743;49.934;9.138;2023-03-22T07:58:06;100103.22;;;9.66;100.00
13348;BME280;6743;49.934;9.138;2023-03-22T08:00:32;100107.19;;;9.78;100.00
13348;BME280;6743;49.934;9.138;2023-03-22T08:02:59;100098.75;;;9.91;100.00
13348;BME280;6743;49.934;9.138;2023-03-22T08:05:26;100100.09;;;10.03;100.00
13348;BME280;6743;49.934;9.138;2023-03-22T08:07:52;100099.78;;;10.14;100.00
13348;BME280;6743;49.934;9.138;2023-03-22T08:10:18;100089.84;;;10.24;100.00
13348;BME280;6743;49.934;9.138;2023-03-22T08:12:45;100098.16;;;10.37;100.00
13348;BME280;6743;49.934;9.138;2023-03-22T08:15:12;100047.44;;;10.16;100.00
13348;BME280;6743;49.934;9.138;2023-03-22T08:17:38;100100.44;;;10.56;100.00
13348;BME280;6743;49.934;9.138;2023-03-22T08:20:05;100104.56;;;10.67;100.00
13348;BME280;6743;49.934;9.138;2023-03-22T08:22:33;100112.50;;;10.75;100.00
13348;BME280;6743;49.934;9.138;2023-03-22T08:24:59;100103.88;;;10.81;100.00
13348;BME280;6743;49.934;9.138;2023-03-22T08:27:26;100105.34;;;10.92;100.00
13348;BME280;6743;49.934;9.138;2023-03-22T08:29:52;100105.59;;;11.13;100.00
13348;BME280;6743;49.934;9.138;2023-03-22T08:32:18;100096.22;;;11.33;100.00
13348;BME280;6743;49.934;9.138;2023-03-22T08:34:45;100111.09;;;11.42;100.00
13348;BME280;6743;49.934;9.138;2023-03-22T08:37:12;100103.09;;;11.51;100.00
13348;BME280;6743;49.934;9.138;2023-03-22T08:39:39;100100.38;;;11.59;100.00
13348;BME280;6743;49.934;9.138;2023-03-22T08:42:05;100107.12;;;11.69;100.00
13348;BME280;6743;49.934;9.138;2023-03-22T08:44:31;100101.78;;;11.77;100.00
13348;BME280;6743;49.934;9.138;2023-03-22T08:46:58;100112.53;;;11.84;100.00
13348;BME280;6743;49.934;9.138;2023-03-22T08:49:25;100102.41;;;11.88;100.00
13348;BME280;6743;49.934;9.138;2023-03-22T08:51:51;100097.97;;;12.03;100.00
13348;BME280;6743;49.934;9.138;2023-03-22T08:54:17;100104.87;;;12.12;100.00
13348;BME280;6743;49.934;9.138;2023-03-22T08:56:43;100108.63;;;12.17;100.00
13348;BME280;6743;49.934;9.138;2023-03-22T08:59:09;100100.31;;;12.20;100.00
13348;BME280;6743;49.934;9.138;2023-03-22T09:01:35;100116.81;;;12.16;100.00
13348;BME280;6743;49.934;9.138;2023-03-22T09:04:03;100101.22;;;12.13;100.00
13348;BME280;6743;49.934;9.138;2023-03-22T09:06:29;100097.87;;;12.11;100.00
13348;BME280;6743;49.934;9.138;2023-03-22T09:08:56;100098.72;;;12.11;100.00
13348;BME280;6743;49.934;9.138;2023-03-22T09:11:23;100031.25;;;11.75;100.00
13348;BME280;6743;49.934;9.138;2023-03-22T09:13:49;100081.81;;;12.04;100.00
13348;BME280;6743;49.934;9.138;2023-03-22T09:16:15;100081.81;;;12.04;100.00
13348;BME280;6743;49.934;9.138;2023-03-22T09:18:42;100052.53;;;11.90;100.00
13348;BME280;6743;49.934;9.138;2023-03-22T09:21:09;100084.69;;;12.17;100.00
13348;BME280;6743;49.934;9.138;2023-03-22T09:23:37;100105.28;;;12.23;100.00
13348;BME280;6743;49.934;9.138;2023-03-22T09:26:05;100090.72;;;12.34;100.00
13348;BME280;6743;49.934;9.138;2023-03-22T09:28:32;100093.22;;;12.36;100.00
13348;BME280;6743;49.934;9.138;2023-03-22T09:30:59;100094.87;;;12.37;100.00
13348;BME280;6743;49.934;9.138;2023-03-22T09:33:26;100094.13;;;12.43;100.00
13348;BME280;6743;49.934;9.138;2023-03-22T09:35:52;100086.16;;;12.43;100.00
13348;BME280;6743;49.934;9.138;2023-03-22T09:38:19;100084.78;;;12.47;100.00
13348;BME280;6743;49.934;9.138;2023-03-22T09:40:51;100079.62;;;12.45;100.00
13348;BME280;6743;49.934;9.138;2023-03-22T09:43:26;100087.09;;;12.50;100.00
13348;BME280;6743;49.934;9.138;2023-03-22T09:45:53;100067.25;;;12.52;100.00
13348;BME280;6743;49.934;9.138;2023-03-22T09:48:21;100067.25;;;12.52;100.00
13348;BME280;6743;49.934;9.138;2023-03-22T09:50:51;100062.75;;;12.53;100.00
13348;BME280;6743;49.934;9.138;2023-03-22T09:53:18;100072.88;;;12.57;100.00
13348;BME280;6743;49.934;9.138;2023-03-22T09:55:49;100065.34;;;12.76;100.00
13348;BME280;6743;49.934;9.138;2023-03-22T09:58:23;100058.94;;;12.85;100.00
13348;BME280;6743;49.934;9.138;2023-03-22T10:00:55;100038.09;;;12.88;100.00
13348;BME280;6743;49.934;9.138;2023-03-22T10:03:33;100055.88;;;13.02;100.00
13348;BME280;6743;49.934;9.138;2023-03-22T10:06:05;100047.53;;;13.06;100.00
13348;BME280;6743;49.934;9.138;2023-03-22T10:08:45;100058.81;;;13.08;100.00
13348;BME280;6743;49.934;9.138;2023-03-22T10:11:22;100050.22;;;13.20;100.00
13348;BME280;6743;49.934;9.138;2023-03-22T10:13:56;100039.16;;;13.23;100.00
13348;BME280;6743;49.934;9.138;2023-03-22T10:16:28;100044.81;;;13.35;100.00
13348;BME280;6743;49.934;9.138;2023-03-22T10:19:02;100034.16;;;13.35;100.00
13348;BME280;6743;49.934;9.138;2023-03-22T10:21:29;100036.09;;;13.41;100.00
13348;BME280;6743;49.934;9.138;2023-03-22T10:23:58;100036.53;;;13.45;100.00
13348;BME280;6743;49.934;9.138;2023-03-22T10:26:28;100033.87;;;13.45;100.00
13348;BME280;6743;49.934;9.138;2023-03-22T10:28:59;100030.37;;;13.44;100.00
13348;BME280;6743;49.934;9.138;2023-03-22T10:31:28;100034.88;;;13.44;100.00
13348;BME280;6743;49.934;9.138;2023-03-22T10:33:57;100028.53;;;13.45;100.00
13348;BME280;6743;49.934;9.138;2023-03-22T10:36:27;100028.38;;;13.46;100.00
13348;BME280;6743;49.934;9.138;2023-03-22T10:38:59;99994.78;;;13.30;100.00
13348;BME280;6743;49.934;9.138;2023-03-22T10:41:28;100019.34;;;13.47;100.00
13348;BME280;6743;49.934;9.138;2023-03-22T10:43:57;100023.87;;;13.47;100.00
13348;BME280;6743;49.934;9.138;2023-03-22T10:46:27;100018.12;;;13.50;100.00
13348;BME280;6743;49.934;9.138;2023-03-22T10:48:58;100023.75;;;13.55;100.00
13348;BME280;6743;49.934;9.138;2023-03-22T10:51:28;100015.81;;;13.61;100.00
13348;BME280;6743;49.934;9.138;2023-03-22T10:53:55;100018.09;;;13.64;100.00
13348;BME280;6743;49.934;9.138;2023-03-22T10:56:23;100019.63;;;13.73;100.00
13348;BME280;6743;49.934;9.138;2023-03-22T10:58:50;100015.16;;;13.80;100.00
13348;BME280;6743;49.934;9.138;2023-03-22T11:01:24;100005.53;;;13.79;100.00
13348;BME280;6743;49.934;9.138;2023-03-22T11:03:52;100014.22;;;13.88;100.00
13348;BME280;6743;49.934;9.138;2023-03-22T11:06:23;100019.16;;;13.91;100.00
13348;BME280;6743;49.934;9.138;2023-03-22T11:08:51;100021.44;;;13.94;100.00
13348;BME280;6743;49.934;9.138;2023-03-22T11:11:22;100021.03;;;13.97;100.00
13348;BME280;6743;49.934;9.138;2023-03-22T11:13:57;100001.94;;;13.94;100.00
13348;BME280;6743;49.934;9.138;2023-03-22T11:16:24;100009.22;;;14.06;100.00
13348;BME280;6743;49.934;9.138;2023-03-22T11:18:50;99995.31;;;14.11;100.00
13348;BME280;6743;49.934;9.138;2023-03-22T11:21:29;99993.72;;;14.16;100.00
13348;BME280;6743;49.934;9.138;2023-03-22T11:23:58;99997.44;;;14.22;100.00
13348;BME280;6743;49.934;9.138;2023-03-22T11:26:29;100002.00;;;14.28;100.00
13348;BME280;6743;49.934;9.138;2023-03-22T11:29:04;99995.66;;;14.29;100.00
13348;BME280;6743;49.934;9.138;2023-03-22T11:31:47;99993.00;;;14.29;100.00
13348;BME280;6743;49.934;9.138;2023-03-22T11:34:17;99982.31;;;14.29;100.00
13348;BME280;6743;49.934;9.138;2023-03-22T11:36:44;99981.91;;;14.32;100.00
13348;BME280;6743;49.934;9.138;2023-03-22T11:39:15;99977.84;;;14.36;100.00
13348;BME280;6743;49.934;9.138;2023-03-22T11:41:41;99985.09;;;14.42;100.00
13348;BME280;6743;49.934;9.138;2023-03-22T11:44:12;99933.63;;;14.20;100.00
13348;BME280;6743;49.934;9.138;2023-03-22T11:46:39;99971.44;;;14.58;100.00
13348;BME280;6743;49.934;9.138;2023-03-22T11:49:15;99987.13;;;14.75;100.00
13348;BME280;6743;49.934;9.138;2023-03-22T11:51:42;99980.78;;;14.82;100.00
13348;BME280;6743;49.934;9.138;2023-03-22T11:54:13;99973.81;;;14.88;100.00
13348;BME280;6743;49.934;9.138;2023-03-22T11:56:44;99976.50;;;14.94;100.00
13348;BME280;6743;49.934;9.138;2023-03-22T11:59:14;99971.81;;;14.96;100.00
13348;BME280;6743;49.934;9.138;2023-03-22T12:01:43;99964.81;;;14.95;100.00
13348;BME280;6743;49.934;9.138;2023-03-22T12:04:15;99970.97;;;14.96;100.00
13348;BME280;6743;49.934;9.138;2023-03-22T12:06:43;99966.66;;;14.95;100.00
13348;BME280;6743;49.934;9.138;2023-03-22T12:09:21;99954.94;;;14.96;100.00
13348;BME280;6743;49.934;9.138;2023-03-22T12:11:52;99953.31;;;15.02;100.00
13348;BME280;6743;49.934;9.138;2023-03-22T12:14:23;99947.97;;;15.02;100.00
13348;BME280;6743;49.934;9.138;2023-03-22T12:16:54;99949.63;;;15.03;100.00
13348;BME280;6743;49.934;9.138;2023-03-22T12:19:29;99946.13;;;15.02;100.00
13348;BME280;6743;49.934;9.138;2023-03-22T12:22:01;99936.91;;;15.05;100.00
13348;BME280;6743;49.934;9.138;2023-03-22T12:24:29;99945.75;;;15.05;100.00
13348;BME280;6743;49.934;9.138;2023-03-22T12:26:59;99921.06;;;14.96;100.00
13348;BME280;6743;49.934;9.138;2023-03-22T12:29:28;99932.19;;;15.07;100.00
13348;BME280;6743;49.934;9.138;2023-03-22T12:31:59;99923.13;;;15.08;100.00
13348;BME280;6743;49.934;9.138;2023-03-22T12:34:35;99935.25;;;15.10;100.00
13348;BME280;6743;49.934;9.138;2023-03-22T12:37:05;99926.84;;;15.13;100.00
13348;BME280;6743;49.934;9.138;2023-03-22T12:39:36;99917.59;;;15.16;100.00
13348;BME280;6743;49.934;9.138;2023-03-22T12:42:12;99919.44;;;15.22;100.00
13348;BME280;6743;49.934;9.138;2023-03-22T12:44:42;99915.97;;;15.21;100.00
13348;BME280;6743;49.934;9.138;2023-03-22T12:47:14;99912.69;;;15.26;100.00
13348;BME280;6743;49.934;9.138;2023-03-22T12:49:48;99905.72;;;15.31;100.00
13348;BME280;6743;49.934;9.138;2023-03-22T12:52:18;99908.59;;;15.43;100.00
13348;BME280;6743;49.934;9.138;2023-03-22T12:54:46;99903.25;;;15.50;100.00
13348;BME280;6743;49.934;9.138;2023-03-22T12:57:15;99896.06;;;15.57;100.00
13348;BME280;6743;49.934;9.138;2023-03-22T12:59:44;99892.38;;;15.71;100.00
13348;BME280;6743;49.934;9.138;2023-03-22T13:02:14;99891.78;;;15.75;100.00
13348;BME280;6743;49.934;9.138;2023-03-22T13:04:52;99894.03;;;15.79;100.00
13348;BME280;6743;49.934;9.138;2023-03-22T13:07:53;99888.84;;;15.84;100.00
13348;BME280;6743;49.934;9.138;2023-03-22T13:10:57;99891.12;;;15.87;100.00